Time;durP1;ratioP1;P1;durP2;ratioP2;P2;SDS_P1;SDS_P2;PMS_P1;PMS_P2;Temp;Humidity;BMP_temperature;BMP_pressure;BME280_temperature;BME280_humidity;BME280_pressure;Samples;Min_cycle;Max_cycle;Signal;HPM_P1;HPM_P2
2021/10/09 00:00:28;;;;;;;37.00;32.10;;;;;;;;;;5055207;28;20263;-70
2021/10/09 00:02:55;;;;;;;34.20;30.57;;;;;;;;;;5054936;28;20279;-69
2021/10/09 00:05:21;;;;;;;32.73;29.23;;;;;;;;;;5056130;28;20273;-69
2021/10/09 00:07:48;;;;;;;34.50;31.00;;;;;;;;;;5055919;28;20298;-69
2021/10/09 00:10:24;;;;;;;34.70;30.63;;;;;;;;;;5055400;28;20687;-69
2021/10/09 00:12:51;;;;;;;39.20;32.17;;;;;;;;;;5056874;28;20252;-69
2021/10/09 00:15:17;;;;;;;36.73;32.73;;;;;;;;;;5054706;28;20221;-69
2021/10/09 00:17:45;;;;;;;36.43;32.63;;;;;;;;;;5055808;28;20217;-69
2021/10/09 00:20:12;;;;;;;36.87;32.87;;;;;;;;;;5053240;28;20241;-69
2021/10/09 00:22:38;;;;;;;37.20;32.23;;;;;;;;;;5054559;28;20213;-69
2021/10/09 00:25:05;;;;;;;36.40;32.63;;;;;;;;;;5057121;28;20221;-69
2021/10/09 00:27:32;;;;;;;39.57;33.50;;;;;;;;;;5054324;28;20245;-69
2021/10/09 00:29:58;;;;;;;38.50;34.30;;;;;;;;;;5056896;28;20269;-69
2021/10/09 00:32:25;;;;;;;39.03;33.00;;;;;;;;;;5054271;28;20253;-69
2021/10/09 00:34:53;;;;;;;41.03;35.23;;;;;;;;;;5056465;28;20245;-69
2021/10/09 00:37:19;;;;;;;42.47;35.57;;;;;;;;;;5053697;28;20243;-69
2021/10/09 00:39:46;;;;;;;44.13;35.33;;;;;;;;;;5053859;28;20218;-69
2021/10/09 00:42:12;;;;;;;38.07;33.67;;;;;;;;;;5055617;28;20241;-69
2021/10/09 00:44:39;;;;;;;40.07;34.70;;;;;;;;;;5053714;28;20213;-69
2021/10/09 00:47:06;;;;;;;42.63;33.90;;;;;;;;;;5054945;28;20683;-69
2021/10/09 00:49:33;;;;;;;36.17;32.30;;;;;;;;;;5054989;28;20221;-69
2021/10/09 00:52:04;;;;;;;40.97;36.10;;;;;;;;;;5054427;28;20209;-69
2021/10/09 00:54:32;;;;;;;41.00;34.73;;;;;;;;;;5052455;28;20212;-69
2021/10/09 00:57:01;;;;;;;44.50;37.40;;;;;;;;;;5054490;28;20699;-69
2021/10/09 00:59:28;;;;;;;50.57;39.57;;;;;;;;;;5053968;28;20221;-69
2021/10/09 01:01:55;;;;;;;44.93;36.57;;;;;;;;;;5055729;28;20223;-69
2021/10/09 01:04:22;;;;;;;44.57;37.77;;;;;;;;;;5054287;28;20664;-69
2021/10/09 01:06:48;;;;;;;46.40;37.90;;;;;;;;;;5053979;28;20742;-69
2021/10/09 01:09:16;;;;;;;50.67;40.57;;;;;;;;;;5052791;28;20237;-69
2021/10/09 01:11:43;;;;;;;44.13;37.87;;;;;;;;;;5053736;28;20299;-69
2021/10/09 01:14:10;;;;;;;47.17;37.20;;;;;;;;;;5053747;28;20212;-69
2021/10/09 01:16:36;;;;;;;45.67;36.73;;;;;;;;;;5054063;28;20266;-69
2021/10/09 01:19:03;;;;;;;44.70;37.73;;;;;;;;;;5053843;28;20257;-69
2021/10/09 01:21:40;;;;;;;48.83;39.33;;;;;;;;;;5052563;28;20284;-69
2021/10/09 01:24:06;;;;;;;42.70;36.20;;;;;;;;;;5054630;28;20208;-69
2021/10/09 01:26:33;;;;;;;48.37;39.53;;;;;;;;;;5053116;28;20204;-69
2021/10/09 01:28:59;;;;;;;49.93;39.23;;;;;;;;;;5055301;28;20243;-69
2021/10/09 01:31:26;;;;;;;47.47;38.67;;;;;;;;;;5055281;28;20292;-69
2021/10/09 01:33:52;;;;;;;51.80;41.93;;;;;;;;;;5054431;28;20282;-69
2021/10/09 01:36:20;;;;;;;47.23;39.57;;;;;;;;;;5053414;28;20272;-69
2021/10/09 01:38:51;;;;;;;54.40;41.83;;;;;;;;;;5052915;28;20285;-69
2021/10/09 01:41:18;;;;;;;46.93;39.00;;;;;;;;;;5054711;28;20221;-69
2021/10/09 01:43:45;;;;;;;53.07;41.30;;;;;;;;;;5054984;28;20608;-69
2021/10/09 01:46:12;;;;;;;51.27;39.27;;;;;;;;;;5054495;28;20214;-69
2021/10/09 01:48:40;;;;;;;54.87;42.47;;;;;;;;;;5052445;28;20239;-69
2021/10/09 01:51:09;;;;;;;49.60;39.83;;;;;;;;;;5054862;28;20236;-69
2021/10/09 01:53:36;;;;;;;60.70;44.10;;;;;;;;;;5056762;28;20248;-69
2021/10/09 01:56:05;;;;;;;52.30;40.93;;;;;;;;;;5054667;28;20215;-69
2021/10/09 01:58:32;;;;;;;56.70;42.27;;;;;;;;;;5054743;28;20915;-69
2021/10/09 02:00:58;;;;;;;57.33;42.47;;;;;;;;;;5055566;28;20572;-69
2021/10/09 02:03:24;;;;;;;56.20;43.10;;;;;;;;;;5055390;28;20289;-69
2021/10/09 02:05:51;;;;;;;52.77;41.50;;;;;;;;;;5054368;28;20266;-69
2021/10/09 02:08:17;;;;;;;56.47;43.80;;;;;;;;;;5054592;28;20233;-69
2021/10/09 02:10:50;;;;;;;60.20;45.20;;;;;;;;;;5053260;28;20272;-70
2021/10/09 02:13:22;;;;;;;57.20;44.80;;;;;;;;;;5054349;28;20332;-69
2021/10/09 02:15:52;;;;;;;60.13;45.97;;;;;;;;;;5055992;28;20226;-69
2021/10/09 02:18:35;;;;;;;52.40;44.90;;;;;;;;;;5059234;28;20215;-69
2021/10/09 02:26:29;;;;;;;62.47;44.63;;;;;;;;;;5057515;28;20258;-70
2021/10/09 02:28:57;;;;;;;61.30;46.40;;;;;;;;;;5055896;28;20287;-69
2021/10/09 02:31:23;;;;;;;59.77;44.23;;;;;;;;;;5058326;28;20695;-69
2021/10/09 02:33:50;;;;;;;57.33;44.30;;;;;;;;;;5058728;28;20219;-69
2021/10/09 02:36:16;;;;;;;60.87;44.17;;;;;;;;;;5057561;28;20230;-69
2021/10/09 02:38:45;;;;;;;64.80;45.90;;;;;;;;;;5057427;28;20664;-69
2021/10/09 02:41:11;;;;;;;62.50;47.37;;;;;;;;;;5059041;28;20216;-69
2021/10/09 02:43:37;;;;;;;60.63;46.47;;;;;;;;;;5056877;28;20634;-69
2021/10/09 02:46:05;;;;;;;64.63;47.80;;;;;;;;;;5059394;28;20268;-69
2021/10/09 02:48:32;;;;;;;63.93;45.10;;;;;;;;;;5055170;28;20228;-70
2021/10/09 02:50:58;;;;;;;67.27;47.50;;;;;;;;;;5057605;28;20261;-69
2021/10/09 02:53:25;;;;;;;57.27;44.73;;;;;;;;;;5056026;28;20606;-69
2021/10/09 02:55:51;;;;;;;61.80;46.40;;;;;;;;;;5057927;28;20275;-69
2021/10/09 02:58:18;;;;;;;64.53;44.43;;;;;;;;;;5055043;28;20275;-69
2021/10/09 03:00:44;;;;;;;58.63;43.43;;;;;;;;;;5055907;28;20285;-69
2021/10/09 03:03:12;;;;;;;60.13;44.70;;;;;;;;;;5056554;28;20217;-69
2021/10/09 03:05:38;;;;;;;62.97;46.23;;;;;;;;;;5056676;28;20271;-69
2021/10/09 03:08:05;;;;;;;66.67;47.90;;;;;;;;;;5057890;28;20742;-69
2021/10/09 03:10:32;;;;;;;65.37;47.03;;;;;;;;;;5056902;28;20206;-70
2021/10/09 03:12:59;;;;;;;66.43;47.30;;;;;;;;;;5055753;28;20271;-69
2021/10/09 03:15:26;;;;;;;64.27;46.80;;;;;;;;;;5056991;28;20266;-70
2021/10/09 03:17:52;;;;;;;71.30;48.77;;;;;;;;;;5056772;28;20267;-70
2021/10/09 03:20:20;;;;;;;67.83;48.27;;;;;;;;;;5057764;28;20818;-70
2021/10/09 03:22:47;;;;;;;69.27;47.80;;;;;;;;;;5055299;28;20217;-69
2021/10/09 03:25:15;;;;;;;65.23;46.50;;;;;;;;;;5056056;28;20263;-70
2021/10/09 03:27:42;;;;;;;74.70;47.57;;;;;;;;;;5057122;28;20283;-70
2021/10/09 03:30:09;;;;;;;72.33;49.57;;;;;;;;;;5055492;28;20760;-70
2021/10/09 03:32:36;;;;;;;64.00;46.07;;;;;;;;;;5058277;28;20277;-70
2021/10/09 03:35:03;;;;;;;70.13;48.20;;;;;;;;;;5057916;28;20628;-70
2021/10/09 03:37:31;;;;;;;71.40;48.60;;;;;;;;;;5056958;28;20225;-70
2021/10/09 03:40:01;;;;;;;67.13;48.30;;;;;;;;;;5055696;28;20217;-70
2021/10/09 03:42:32;;;;;;;73.40;48.50;;;;;;;;;;5057227;28;20748;-70
2021/10/09 03:45:03;;;;;;;75.10;49.03;;;;;;;;;;5058384;28;20670;-70
2021/10/09 03:47:43;;;;;;;72.70;46.73;;;;;;;;;;5056383;28;20213;-70
2021/10/09 03:50:19;;;;;;;72.13;49.20;;;;;;;;;;5056941;28;20266;-70
2021/10/09 03:52:46;;;;;;;67.43;47.67;;;;;;;;;;5057485;28;20299;-70
2021/10/09 03:55:15;;;;;;;68.93;48.63;;;;;;;;;;5055756;28;20781;-70
2021/10/09 03:57:42;;;;;;;74.13;49.17;;;;;;;;;;5057532;28;20683;-69
2021/10/09 04:00:11;;;;;;;72.13;48.10;;;;;;;;;;5056344;28;20240;-70
2021/10/09 04:02:37;;;;;;;78.27;51.87;;;;;;;;;;5054360;28;20299;-70
2021/10/09 04:05:05;;;;;;;82.10;50.90;;;;;;;;;;5055306;28;20773;-70
2021/10/09 04:07:31;;;;;;;84.03;52.90;;;;;;;;;;5056955;28;20615;-70
2021/10/09 04:09:59;;;;;;;81.17;51.00;;;;;;;;;;5055210;28;21067;-70
2021/10/09 04:12:26;;;;;;;84.17;52.47;;;;;;;;;;5054669;28;20680;-69
2021/10/09 04:14:52;;;;;;;79.03;51.73;;;;;;;;;;5055235;28;20251;-70
2021/10/09 04:17:18;;;;;;;82.17;49.43;;;;;;;;;;5056608;28;20275;-70
2021/10/09 04:19:45;;;;;;;74.17;50.07;;;;;;;;;;5054936;28;20229;-70
2021/10/09 04:22:11;;;;;;;87.00;54.00;;;;;;;;;;5054265;28;20224;-70
2021/10/09 04:24:38;;;;;;;81.93;49.87;;;;;;;;;;5056489;28;20689;-70
2021/10/09 04:27:06;;;;;;;83.97;51.57;;;;;;;;;;5054690;28;20696;-70
2021/10/09 04:29:32;;;;;;;74.23;49.93;;;;;;;;;;5054099;28;21133;-70
2021/10/09 04:31:59;;;;;;;82.85;61.28;;;;;;;;;;5054151;28;20446;-73
2021/10/09 04:34:27;;;;;;;82.67;56.57;;;;;;;;;;5055252;28;20545;-73
2021/10/09 04:36:55;;;;;;;84.77;52.37;;;;;;;;;;5055426;28;20302;-73
2021/10/09 04:39:21;;;;;;;78.23;50.03;;;;;;;;;;5056494;28;20208;-73
2021/10/09 04:41:48;;;;;;;86.27;51.43;;;;;;;;;;5054183;28;20231;-73
2021/10/09 04:44:17;;;;;;;79.20;48.27;;;;;;;;;;5053881;28;20273;-73
2021/10/09 04:46:43;;;;;;;81.03;51.63;;;;;;;;;;5056179;28;20215;-73
2021/10/09 04:49:10;;;;;;;79.30;49.40;;;;;;;;;;5055196;28;20231;-72
2021/10/09 04:51:36;;;;;;;76.83;49.77;;;;;;;;;;5056642;28;20264;-72
2021/10/09 04:54:02;;;;;;;84.20;48.93;;;;;;;;;;5053492;28;20254;-72
2021/10/09 04:56:29;;;;;;;78.80;49.37;;;;;;;;;;5053439;28;20214;-73
2021/10/09 04:58:55;;;;;;;73.37;47.40;;;;;;;;;;5054031;28;20299;-72
2021/10/09 05:01:23;;;;;;;89.70;53.33;;;;;;;;;;5055282;28;20279;-73
2021/10/09 05:03:50;;;;;;;85.93;52.30;;;;;;;;;;5054906;28;20268;-72
2021/10/09 05:06:16;;;;;;;84.43;52.07;;;;;;;;;;5053318;28;20294;-72
2021/10/09 05:08:42;;;;;;;89.03;54.53;;;;;;;;;;5054278;28;20267;-73
2021/10/09 05:11:09;;;;;;;92.90;53.77;;;;;;;;;;5053203;28;20257;-73
2021/10/09 05:13:36;;;;;;;81.77;51.93;;;;;;;;;;5054672;28;20246;-73
2021/10/09 05:16:02;;;;;;;95.60;55.80;;;;;;;;;;5056508;28;20215;-73
2021/10/09 05:18:30;;;;;;;81.73;51.10;;;;;;;;;;5053957;28;20252;-73
2021/10/09 05:20:56;;;;;;;95.33;53.00;;;;;;;;;;5053761;28;20231;-73
2021/10/09 05:23:23;;;;;;;85.03;52.33;;;;;;;;;;5054864;28;20219;-72
2021/10/09 05:25:49;;;;;;;97.97;55.27;;;;;;;;;;5053370;28;20230;-72
2021/10/09 05:28:18;;;;;;;113.67;58.33;;;;;;;;;;5053757;28;20264;-72
2021/10/09 05:30:48;;;;;;;117.00;57.87;;;;;;;;;;5053672;28;20323;-72
2021/10/09 05:33:22;;;;;;;151.33;65.80;;;;;;;;;;5054721;28;20230;-72
2021/10/09 05:35:50;;;;;;;195.17;69.93;;;;;;;;;;5054451;28;20234;-72
2021/10/09 05:38:17;;;;;;;196.80;71.10;;;;;;;;;;5055582;28;20218;-72
2021/10/09 05:40:43;;;;;;;184.63;68.53;;;;;;;;;;5053223;28;20215;-72
2021/10/09 05:43:09;;;;;;;169.83;63.20;;;;;;;;;;5051888;28;20599;-72
2021/10/09 05:45:36;;;;;;;200.40;73.10;;;;;;;;;;5055450;28;20219;-72
2021/10/09 05:48:02;;;;;;;181.83;67.70;;;;;;;;;;5053984;28;20639;-72
2021/10/09 05:50:33;;;;;;;182.60;64.87;;;;;;;;;;5053491;28;20563;-72
2021/10/09 05:53:10;;;;;;;192.00;67.73;;;;;;;;;;5058877;28;20680;-72
2021/10/09 05:55:40;;;;;;;183.20;65.87;;;;;;;;;;5058072;28;20653;-74
2021/10/09 05:58:09;;;;;;;252.63;75.13;;;;;;;;;;5058813;28;20223;-72
2021/10/09 06:25:50;;;;;;;224.97;68.93;;;;;;;;;;5058047;28;20349;-74
2021/10/09 06:44:58;;;;;;;277.87;84.10;;;;;;;;;;5016536;28;20243;-72
2021/10/09 06:47:27;;;;;;;200.57;71.03;;;;;;;;;;5054569;28;20216;-71
2021/10/09 07:00:50;;;;;;;126.90;64.50;;;;;;;;;;5054866;28;20211;-71
2021/10/09 07:03:17;;;;;;;126.30;61.07;;;;;;;;;;5054216;28;20217;-71
2021/10/09 07:05:44;;;;;;;125.37;61.53;;;;;;;;;;5054693;28;20229;-71
2021/10/09 07:08:11;;;;;;;126.53;63.57;;;;;;;;;;5054370;28;20604;-72
2021/10/09 07:10:39;;;;;;;101.90;57.63;;;;;;;;;;5053689;28;20364;-71
2021/10/09 07:13:07;;;;;;;107.33;56.53;;;;;;;;;;5055042;28;20542;-71
2021/10/09 07:15:35;;;;;;;101.80;56.27;;;;;;;;;;5055482;28;20282;-71
2021/10/09 07:18:02;;;;;;;118.80;62.63;;;;;;;;;;5055875;28;20302;-71
2021/10/09 07:20:29;;;;;;;90.43;54.80;;;;;;;;;;5054602;28;20238;-72
2021/10/09 07:22:55;;;;;;;101.70;54.47;;;;;;;;;;5054693;28;20315;-73
2021/10/09 07:25:22;;;;;;;104.23;56.83;;;;;;;;;;5054400;28;20265;-73
2021/10/09 07:27:49;;;;;;;104.20;57.73;;;;;;;;;;5052656;28;20234;-71
2021/10/09 07:30:17;;;;;;;99.97;56.83;;;;;;;;;;5051940;28;20311;-71
2021/10/09 07:32:44;;;;;;;91.93;53.17;;;;;;;;;;5053767;28;20546;-71
2021/10/09 07:35:11;;;;;;;84.03;51.33;;;;;;;;;;5052558;28;20268;-71
2021/10/09 07:37:38;;;;;;;78.70;48.87;;;;;;;;;;5053334;28;20272;-71
2021/10/09 07:40:06;;;;;;;77.80;48.13;;;;;;;;;;5052900;28;20221;-71
2021/10/09 07:42:33;;;;;;;75.70;49.70;;;;;;;;;;5052139;28;20240;-71
2021/10/09 07:44:59;;;;;;;84.10;52.00;;;;;;;;;;5054444;28;20221;-69
2021/10/09 07:47:27;;;;;;;82.73;49.50;;;;;;;;;;5053421;28;20695;-70
2021/10/09 07:49:53;;;;;;;70.03;48.67;;;;;;;;;;5053477;28;20299;-70
2021/10/09 07:52:19;;;;;;;85.07;50.40;;;;;;;;;;5051738;28;20559;-70
2021/10/09 07:54:46;;;;;;;77.50;50.97;;;;;;;;;;5052286;28;20217;-70
2021/10/09 07:57:12;;;;;;;73.63;48.93;;;;;;;;;;5053361;28;20235;-70
2021/10/09 07:59:39;;;;;;;69.03;47.10;;;;;;;;;;5051803;28;20282;-70
2021/10/09 08:02:05;;;;;;;70.87;50.43;;;;;;;;;;5054504;28;20216;-70
2021/10/09 08:04:33;;;;;;;69.40;46.37;;;;;;;;;;5053683;28;20217;-70
2021/10/09 08:07:00;;;;;;;67.80;48.17;;;;;;;;;;5054104;28;20213;-70
2021/10/09 08:09:30;;;;;;;62.97;43.53;;;;;;;;;;5054615;28;20734;-70
2021/10/09 08:11:57;;;;;;;62.77;44.07;;;;;;;;;;5054107;28;20241;-70
2021/10/09 08:14:23;;;;;;;66.20;48.07;;;;;;;;;;5050236;28;20606;-70
2021/10/09 08:16:50;;;;;;;70.13;47.57;;;;;;;;;;5051957;28;20266;-70
2021/10/09 08:19:16;;;;;;;62.20;44.67;;;;;;;;;;5054571;28;20213;-70
2021/10/09 08:21:45;;;;;;;61.97;44.00;;;;;;;;;;5051771;28;20304;-72
2021/10/09 08:24:21;;;;;;;61.30;43.77;;;;;;;;;;5051618;28;20228;-72
2021/10/09 08:27:01;;;;;;;60.83;43.70;;;;;;;;;;5054245;28;20219;-70
2021/10/09 08:40:39;;;;;;;56.20;43.17;;;;;;;;;;4982860;28;20215;-70
2021/10/09 08:43:05;;;;;;;59.97;45.87;;;;;;;;;;4983242;28;20304;-70
2021/10/09 08:45:32;;;;;;;61.00;44.30;;;;;;;;;;5012987;28;20569;-72
2021/10/09 08:47:58;;;;;;;56.17;40.90;;;;;;;;;;5052731;28;20210;-70
2021/10/09 08:50:26;;;;;;;53.63;40.13;;;;;;;;;;5052519;28;20234;-72
2021/10/09 08:53:03;;;;;;;59.57;42.17;;;;;;;;;;5055126;28;20702;-70
2021/10/09 08:55:30;;;;;;;53.80;40.60;;;;;;;;;;5052213;28;20519;-70
2021/10/09 08:58:02;;;;;;;58.47;39.63;;;;;;;;;;5053318;28;20229;-70
2021/10/09 09:00:52;;;;;;;56.57;42.03;;;;;;;;;;5053395;28;20219;-72
2021/10/09 09:03:26;;;;;;;54.07;41.87;;;;;;;;;;5053655;28;20217;-70
2021/10/09 09:06:00;;;;;;;55.43;40.13;;;;;;;;;;5053589;28;20279;-70
2021/10/09 09:08:47;;;;;;;54.87;40.77;;;;;;;;;;5053503;28;20220;-72
2021/10/09 09:25:49;;;;;;;43.87;36.87;;;;;;;;;;4974821;28;20702;-70
2021/10/09 09:31:22;;;;;;;44.50;35.87;;;;;;;;;;5053470;28;20237;-70
2021/10/09 09:36:50;;;;;;;49.03;39.43;;;;;;;;;;5053825;28;20284;-72
2021/10/09 09:39:16;;;;;;;47.67;37.90;;;;;;;;;;5054805;28;20602;-70
2021/10/09 09:41:46;;;;;;;46.97;37.60;;;;;;;;;;5051288;28;21130;-70
2021/10/09 09:44:14;;;;;;;47.23;38.13;;;;;;;;;;5053912;28;20221;-72
2021/10/09 09:46:40;;;;;;;42.83;36.77;;;;;;;;;;5051078;28;20252;-71
2021/10/09 09:49:07;;;;;;;47.67;39.07;;;;;;;;;;5053147;28;20641;-73
2021/10/09 09:51:37;;;;;;;48.53;38.30;;;;;;;;;;5054831;28;20627;-73
2021/10/09 09:54:04;;;;;;;45.53;38.93;;;;;;;;;;5053797;28;20215;-71
2021/10/09 09:56:30;;;;;;;48.43;40.23;;;;;;;;;;5050108;28;20215;-72
2021/10/09 09:59:00;;;;;;;47.23;39.00;;;;;;;;;;5051339;28;20233;-73
2021/10/09 10:01:32;;;;;;;45.70;36.17;;;;;;;;;;5050192;28;20572;-72
2021/10/09 10:03:59;;;;;;;43.27;37.60;;;;;;;;;;5052043;28;20214;-72
2021/10/09 10:06:27;;;;;;;43.53;36.73;;;;;;;;;;5051478;28;20226;-73
2021/10/09 10:08:55;;;;;;;45.50;37.10;;;;;;;;;;5052356;28;20636;-72
2021/10/09 10:11:22;;;;;;;45.47;37.10;;;;;;;;;;5050556;28;20303;-72
2021/10/09 10:13:50;;;;;;;42.67;35.57;;;;;;;;;;5033062;28;20218;-72
2021/10/09 10:16:18;;;;;;;44.67;34.93;;;;;;;;;;5032557;28;20289;-73
2021/10/09 10:18:50;;;;;;;45.87;35.03;;;;;;;;;;5031470;28;20260;-72
2021/10/09 10:21:17;;;;;;;42.07;35.60;;;;;;;;;;5033603;28;20226;-72
2021/10/09 10:23:45;;;;;;;39.43;33.47;;;;;;;;;;5030977;28;20830;-72
2021/10/09 10:26:30;;;;;;;43.80;34.30;;;;;;;;;;5032569;28;20285;-72
2021/10/09 10:29:23;;;;;;;38.17;33.63;;;;;;;;;;5032433;28;20878;-70
2021/10/09 10:32:17;;;;;;;37.40;31.67;;;;;;;;;;5033637;28;20276;-70
2021/10/09 10:34:46;;;;;;;35.90;31.20;;;;;;;;;;5031498;28;20299;-70
2021/10/09 10:37:33;;;;;;;40.03;33.67;;;;;;;;;;5034003;28;20570;-70
2021/10/09 10:39:59;;;;;;;38.97;32.63;;;;;;;;;;5035563;28;20255;-70
2021/10/09 10:42:28;;;;;;;42.40;32.90;;;;;;;;;;5034911;28;20275;-70
2021/10/09 10:47:44;;;;;;;50.63;32.90;;;;;;;;;;5032892;28;20205;-70
2021/10/09 10:50:46;;;;;;;37.60;32.80;;;;;;;;;;5035649;28;20229;-70
2021/10/09 10:53:18;;;;;;;41.57;32.03;;;;;;;;;;5035977;28;20209;-70
2021/10/09 10:56:04;;;;;;;37.83;32.27;;;;;;;;;;5036266;28;20218;-70
2021/10/09 10:58:31;;;;;;;36.97;30.87;;;;;;;;;;5034411;28;20288;-70
2021/10/09 11:01:19;;;;;;;35.40;29.90;;;;;;;;;;5035285;28;20209;-70
2021/10/09 11:03:51;;;;;;;38.23;29.47;;;;;;;;;;5030328;28;20782;-70
2021/10/09 11:06:19;;;;;;;35.97;31.90;;;;;;;;;;5036321;28;20243;-70
2021/10/09 11:08:47;;;;;;;38.53;32.00;;;;;;;;;;5035079;28;20612;-70
2021/10/09 11:11:14;;;;;;;34.00;29.87;;;;;;;;;;5034869;28;20609;-70
2021/10/09 11:13:41;;;;;;;36.93;30.97;;;;;;;;;;5055134;28;20291;-70
2021/10/09 11:16:08;;;;;;;35.63;29.93;;;;;;;;;;5056208;28;20222;-72
2021/10/09 11:18:50;;;;;;;31.93;28.47;;;;;;;;;;5055739;28;20218;-70
2021/10/09 11:21:17;;;;;;;35.37;28.47;;;;;;;;;;5055171;28;20229;-70
2021/10/09 11:23:52;;;;;;;34.27;30.30;;;;;;;;;;5054334;28;20206;-70
2021/10/09 11:26:19;;;;;;;35.53;31.73;;;;;;;;;;5054088;28;20579;-70
2021/10/09 11:28:46;;;;;;;37.10;31.47;;;;;;;;;;5054781;28;20210;-70
2021/10/09 11:31:22;;;;;;;32.97;29.43;;;;;;;;;;5054680;28;20696;-70
2021/10/09 11:33:54;;;;;;;60.80;30.20;;;;;;;;;;5054589;28;20648;-71
2021/10/09 11:36:20;;;;;;;38.13;29.23;;;;;;;;;;5054262;28;20362;-72
2021/10/09 11:38:47;;;;;;;33.43;28.27;;;;;;;;;;5056354;28;20218;-72
2021/10/09 11:41:18;;;;;;;35.40;29.23;;;;;;;;;;5054667;28;20222;-71
2021/10/09 11:43:47;;;;;;;39.77;30.60;;;;;;;;;;5056877;28;20222;-71
2021/10/09 11:46:29;;;;;;;33.43;29.77;;;;;;;;;;5052922;28;20671;-71
2021/10/09 11:54:30;;;;;;;35.10;29.47;;;;;;;;;;5052898;28;20248;-72
2021/10/09 11:56:57;;;;;;;33.07;27.93;;;;;;;;;;5054939;28;20224;-72
2021/10/09 11:59:38;;;;;;;35.57;28.30;;;;;;;;;;5055299;28;20564;-72
2021/10/09 12:02:06;;;;;;;34.33;27.80;;;;;;;;;;5052608;28;20293;-72
2021/10/09 12:04:34;;;;;;;31.87;27.67;;;;;;;;;;5054022;28;20218;-72
2021/10/09 12:07:08;;;;;;;34.30;28.63;;;;;;;;;;5055153;28;20219;-72
2021/10/09 12:09:38;;;;;;;33.00;26.87;;;;;;;;;;5055537;28;20218;-72
2021/10/09 12:12:12;;;;;;;33.70;26.77;;;;;;;;;;5054030;28;20360;-71
2021/10/09 12:14:38;;;;;;;36.23;26.47;;;;;;;;;;5055052;28;20217;-71
2021/10/09 12:17:05;;;;;;;34.97;25.67;;;;;;;;;;5053694;28;20262;-70
2021/10/09 12:19:31;;;;;;;31.63;26.50;;;;;;;;;;5051248;28;20221;-71
2021/10/09 12:22:04;;;;;;;39.10;28.53;;;;;;;;;;5052679;28;20203;-72
2021/10/09 12:24:32;;;;;;;36.77;27.00;;;;;;;;;;5053091;28;20244;-71
2021/10/09 12:27:00;;;;;;;31.70;27.37;;;;;;;;;;5054365;28;20232;-71
2021/10/09 12:29:27;;;;;;;31.53;27.40;;;;;;;;;;5051604;28;20206;-71
2021/10/09 12:31:55;;;;;;;29.00;25.80;;;;;;;;;;5053747;28;20242;-72
2021/10/09 12:34:29;;;;;;;28.97;25.10;;;;;;;;;;5053886;28;20243;-71
2021/10/09 12:37:27;;;;;;;30.27;25.93;;;;;;;;;;5054087;28;20211;-72
2021/10/09 12:40:22;;;;;;;30.63;27.30;;;;;;;;;;5055291;28;20234;-71
2021/10/09 12:42:51;;;;;;;30.57;26.17;;;;;;;;;;5006078;28;20676;-71
2021/10/09 12:45:19;;;;;;;30.80;26.80;;;;;;;;;;5052107;28;20217;-72
2021/10/09 12:47:46;;;;;;;29.47;25.30;;;;;;;;;;5054741;28;20254;-71
2021/10/09 12:50:13;;;;;;;32.07;24.93;;;;;;;;;;5053524;28;20233;-72
2021/10/09 12:52:40;;;;;;;30.87;25.77;;;;;;;;;;5051118;28;20233;-71
2021/10/09 12:55:08;;;;;;;28.00;24.37;;;;;;;;;;5052991;28;20215;-71
2021/10/09 12:57:36;;;;;;;28.83;25.83;;;;;;;;;;5051132;28;20238;-69
2021/10/09 13:00:04;;;;;;;29.37;24.80;;;;;;;;;;5053452;28;20721;-71
2021/10/09 13:02:30;;;;;;;30.30;25.80;;;;;;;;;;5050905;28;20215;-70
2021/10/09 13:04:57;;;;;;;27.90;24.87;;;;;;;;;;5053214;28;20795;-71
2021/10/09 13:07:23;;;;;;;26.77;24.10;;;;;;;;;;5052631;28;20914;-75
2021/10/09 13:09:53;;;;;;;28.47;25.40;;;;;;;;;;5052330;28;20678;-74
2021/10/09 13:12:19;;;;;;;32.63;26.07;;;;;;;;;;5052451;28;20339;-71
2021/10/09 13:14:46;;;;;;;35.50;26.17;;;;;;;;;;5051966;28;20229;-71
2021/10/09 13:17:12;;;;;;;32.77;26.00;;;;;;;;;;5051218;28;20578;-71
2021/10/09 13:19:38;;;;;;;29.60;26.13;;;;;;;;;;5052630;28;20218;-72
2021/10/09 13:22:05;;;;;;;32.60;26.67;;;;;;;;;;5049578;28;20207;-72
2021/10/09 13:24:31;;;;;;;29.53;25.37;;;;;;;;;;5053427;28;20259;-73
2021/10/09 13:26:59;;;;;;;30.93;25.67;;;;;;;;;;5051891;28;20235;-73
2021/10/09 13:29:25;;;;;;;32.63;27.00;;;;;;;;;;5051823;28;21047;-71
2021/10/09 13:31:52;;;;;;;32.67;25.90;;;;;;;;;;5052665;28;20621;-73
2021/10/09 13:34:18;;;;;;;27.77;24.77;;;;;;;;;;5049330;28;20308;-73
2021/10/09 13:36:45;;;;;;;28.13;25.20;;;;;;;;;;5052750;28;20284;-72
2021/10/09 13:39:11;;;;;;;28.53;25.53;;;;;;;;;;5052160;28;20557;-73
2021/10/09 13:41:38;;;;;;;30.40;24.73;;;;;;;;;;5050541;28;20276;-73
2021/10/09 13:44:06;;;;;;;29.77;24.27;;;;;;;;;;5052240;28;20215;-73
2021/10/09 13:46:33;;;;;;;34.50;26.83;;;;;;;;;;5051251;28;21226;-74
2021/10/09 13:49:00;;;;;;;30.60;25.37;;;;;;;;;;5052991;28;20224;-73
2021/10/09 13:51:26;;;;;;;29.03;25.77;;;;;;;;;;5053128;28;20627;-72
2021/10/09 13:53:52;;;;;;;27.47;24.57;;;;;;;;;;5051676;28;20256;-71
2021/10/09 13:56:19;;;;;;;28.13;25.20;;;;;;;;;;5052636;28;20708;-71
2021/10/09 13:58:45;;;;;;;30.13;26.30;;;;;;;;;;5052962;28;20274;-72
2021/10/09 14:01:15;;;;;;;28.80;25.40;;;;;;;;;;5050123;28;20203;-72
2021/10/09 14:03:41;;;;;;;28.47;25.33;;;;;;;;;;5052408;28;20297;-71
2021/10/09 14:06:08;;;;;;;30.10;26.20;;;;;;;;;;5051786;28;20227;-72
2021/10/09 14:08:34;;;;;;;30.23;25.40;;;;;;;;;;5050381;28;20433;-72
2021/10/09 14:11:02;;;;;;;30.37;24.47;;;;;;;;;;5050487;28;20213;-72
2021/10/09 14:13:29;;;;;;;27.63;23.90;;;;;;;;;;5053816;28;20322;-72
2021/10/09 14:15:56;;;;;;;33.57;25.77;;;;;;;;;;5055769;28;20375;-71
2021/10/09 14:18:24;;;;;;;28.13;25.17;;;;;;;;;;5055379;28;20214;-72
2021/10/09 14:20:52;;;;;;;27.13;24.33;;;;;;;;;;5055410;28;20288;-70
2021/10/09 14:23:19;;;;;;;32.43;25.80;;;;;;;;;;5053391;28;20261;-70
2021/10/09 14:25:46;;;;;;;27.60;24.47;;;;;;;;;;5056843;28;20221;-70
2021/10/09 14:28:13;;;;;;;32.37;26.20;;;;;;;;;;5055931;28;20256;-72
2021/10/09 14:30:40;;;;;;;29.60;24.97;;;;;;;;;;5053910;28;20226;-72
2021/10/09 14:33:07;;;;;;;31.63;25.07;;;;;;;;;;5055289;28;20236;-72
2021/10/09 14:35:36;;;;;;;28.90;25.60;;;;;;;;;;5054911;28;20754;-72
2021/10/09 14:38:03;;;;;;;31.30;26.17;;;;;;;;;;5055069;28;20202;-72
2021/10/09 14:40:29;;;;;;;28.27;25.20;;;;;;;;;;5055279;28;20221;-72
2021/10/09 14:42:55;;;;;;;28.03;24.33;;;;;;;;;;5056078;28;20292;-72
2021/10/09 14:45:23;;;;;;;29.10;26.07;;;;;;;;;;5054963;28;20240;-72
2021/10/09 14:47:53;;;;;;;35.90;26.43;;;;;;;;;;5052847;28;20213;-72
2021/10/09 14:50:37;;;;;;;30.93;26.13;;;;;;;;;;5055914;28;20298;-72
2021/10/09 14:56:13;;;;;;;28.67;25.60;;;;;;;;;;5053200;28;20225;-72
2021/10/09 15:17:51;;;;;;;31.93;25.67;;;;;;;;;;5054096;28;20223;-72
2021/10/09 15:20:18;;;;;;;30.10;24.77;;;;;;;;;;5055469;28;20229;-72
2021/10/09 15:22:44;;;;;;;29.60;24.80;;;;;;;;;;5053366;28;20214;-72
2021/10/09 15:25:13;;;;;;;32.03;24.43;;;;;;;;;;5051128;28;20623;-72
2021/10/09 15:27:40;;;;;;;30.45;27.23;;;;;;;;;;5051677;28;20443;-73
2021/10/09 15:30:07;;;;;;;28.50;25.00;;;;;;;;;;5052045;28;20255;-73
2021/10/09 15:32:34;;;;;;;28.00;25.00;;;;;;;;;;5053963;28;20341;-73
2021/10/09 15:35:01;;;;;;;30.17;24.10;;;;;;;;;;5056166;28;20280;-73
2021/10/09 15:37:29;;;;;;;31.90;25.17;;;;;;;;;;5052265;28;20249;-73
2021/10/09 15:39:55;;;;;;;61.33;25.20;;;;;;;;;;5056182;28;20218;-73
2021/10/09 15:42:23;;;;;;;34.83;25.33;;;;;;;;;;5054530;28;20229;-73
2021/10/09 15:44:49;;;;;;;31.40;24.67;;;;;;;;;;5053842;28;20283;-73
2021/10/09 15:47:16;;;;;;;28.30;23.60;;;;;;;;;;5054427;28;20254;-71
2021/10/09 15:49:42;;;;;;;27.17;23.13;;;;;;;;;;5055105;28;20236;-73
2021/10/09 15:52:08;;;;;;;29.50;24.20;;;;;;;;;;5052466;28;20268;-73
2021/10/09 15:54:35;;;;;;;34.53;23.83;;;;;;;;;;5053367;28;20486;-73
2021/10/09 15:57:02;;;;;;;31.13;25.17;;;;;;;;;;5051334;28;20269;-71
2021/10/09 15:59:29;;;;;;;28.97;23.93;;;;;;;;;;5053439;28;20214;-71
2021/10/09 16:01:56;;;;;;;31.47;25.27;;;;;;;;;;5054473;28;20279;-73
2021/10/09 16:04:22;;;;;;;30.60;24.43;;;;;;;;;;5054230;28;20639;-73
2021/10/09 16:06:52;;;;;;;32.47;23.87;;;;;;;;;;5052274;28;20709;-73
2021/10/09 16:09:19;;;;;;;27.23;23.87;;;;;;;;;;5053079;28;20659;-71
2021/10/09 16:11:45;;;;;;;30.00;25.07;;;;;;;;;;5053062;28;20248;-71
2021/10/09 16:14:12;;;;;;;42.47;26.17;;;;;;;;;;5053680;28;20212;-71
2021/10/09 16:16:39;;;;;;;33.97;26.17;;;;;;;;;;5053776;28;20215;-73
2021/10/09 16:19:06;;;;;;;29.00;24.00;;;;;;;;;;5052849;28;20294;-71
2021/10/09 16:21:33;;;;;;;29.77;24.73;;;;;;;;;;5053453;28;20237;-71
2021/10/09 16:23:59;;;;;;;37.77;24.63;;;;;;;;;;5055266;28;20625;-71